createdAt,value
2023-05-07T00:02:11.446Z,100.00
2023-05-07T00:04:38.316Z,100.00
2023-05-07T00:07:05.408Z,100.00
2023-05-07T00:09:34.772Z,100.00
2023-05-07T00:12:02.267Z,100.00
2023-05-07T00:14:29.151Z,100.00
2023-05-07T00:16:56.852Z,100.00
2023-05-07T00:19:23.937Z,100.00
2023-05-07T00:21:50.798Z,100.00
2023-05-07T00:24:17.858Z,100.00
2023-05-07T00:26:46.376Z,100.00
2023-05-07T00:29:13.548Z,100.00
2023-05-07T00:31:43.366Z,100.00
2023-05-07T00:34:10.862Z,100.00
2023-05-07T00:36:38.408Z,100.00
2023-05-07T00:39:05.839Z,100.00
2023-05-07T00:41:33.779Z,100.00
2023-05-07T00:44:02.850Z,100.00
2023-05-07T00:46:33.887Z,100.00
2023-05-07T00:49:02.516Z,100.00
2023-05-07T00:51:31.217Z,100.00
2023-05-07T00:53:58.620Z,100.00
2023-05-07T00:56:26.377Z,100.00
2023-05-07T00:58:53.537Z,100.00
2023-05-07T01:01:22.336Z,100.00
2023-05-07T01:03:50.338Z,100.00
2023-05-07T01:06:19.508Z,100.00
2023-05-07T01:08:48.074Z,100.00
2023-05-07T01:11:16.349Z,100.00
2023-05-07T01:13:44.653Z,100.00
2023-05-07T01:16:11.887Z,100.00
2023-05-07T01:18:40.795Z,100.00
2023-05-07T01:21:12.265Z,100.00
2023-05-07T01:23:42.495Z,100.00
2023-05-07T01:26:09.686Z,100.00
2023-05-07T01:28:37.126Z,100.00
2023-05-07T01:31:05.477Z,100.00
2023-05-07T01:33:36.151Z,100.00
2023-05-07T01:36:06.877Z,100.00
2023-05-07T01:38:34.820Z,100.00
2023-05-07T01:41:03.929Z,100.00
2023-05-07T01:43:31.460Z,100.00
2023-05-07T01:46:00.161Z,100.00
2023-05-07T01:48:28.066Z,100.00
2023-05-07T01:50:57.527Z,100.00
2023-05-07T01:53:25.365Z,100.00
2023-05-07T01:55:53.264Z,100.00
2023-05-07T01:58:21.975Z,100.00
2023-05-07T02:00:49.384Z,100.00
2023-05-07T02:03:17.493Z,100.00
2023-05-07T02:05:44.914Z,100.00
2023-05-07T02:08:12.240Z,100.00
2023-05-07T02:10:40.054Z,100.00
2023-05-07T02:13:07.957Z,100.00
2023-05-07T02:15:36.853Z,100.00
2023-05-07T02:18:06.075Z,100.00
2023-05-07T02:20:33.980Z,100.00
2023-05-07T02:23:01.117Z,100.00
2023-05-07T02:25:28.752Z,100.00
2023-05-07T02:27:56.264Z,100.00
2023-05-07T02:30:23.176Z,100.00
2023-05-07T02:32:52.624Z,100.00
2023-05-07T02:35:20.639Z,100.00
2023-05-07T02:37:48.095Z,100.00
2023-05-07T02:40:15.626Z,100.00
2023-05-07T02:42:44.511Z,100.00
2023-05-07T02:45:13.037Z,100.00
2023-05-07T02:47:40.401Z,100.00
2023-05-07T02:50:11.299Z,100.00
2023-05-07T02:52:39.413Z,100.00
2023-05-07T02:55:08.431Z,100.00
2023-05-07T02:57:36.182Z,100.00
2023-05-07T03:00:12.153Z,100.00
2023-05-07T03:02:39.919Z,100.00
2023-05-07T03:05:09.579Z,100.00
2023-05-07T03:07:37.507Z,100.00
2023-05-07T03:10:07.536Z,100.00
2023-05-07T03:12:35.002Z,100.00
2023-05-07T03:15:03.114Z,100.00
2023-05-07T03:17:30.615Z,100.00
2023-05-07T03:19:58.098Z,100.00
2023-05-07T03:22:27.790Z,100.00
2023-05-07T03:24:55.400Z,100.00
2023-05-07T03:27:22.785Z,100.00
2023-05-07T03:29:50.557Z,100.00
2023-05-07T03:32:18.117Z,100.00
2023-05-07T03:34:45.796Z,100.00
2023-05-07T03:37:12.970Z,100.00
2023-05-07T03:39:42.101Z,100.00
2023-05-07T03:42:09.241Z,100.00
2023-05-07T03:44:36.468Z,100.00
2023-05-07T03:47:04.452Z,100.00
2023-05-07T03:49:31.724Z,100.00
2023-05-07T03:51:59.695Z,100.00
2023-05-07T03:54:27.495Z,100.00
2023-05-07T03:56:56.804Z,100.00
2023-05-07T03:59:24.820Z,100.00
2023-05-07T04:01:52.208Z,100.00
2023-05-07T04:04:19.620Z,100.00
2023-05-07T04:06:47.459Z,100.00
2023-05-07T04:09:17.500Z,100.00
2023-05-07T04:11:45.317Z,100.00
2023-05-07T04:14:14.061Z,100.00
2023-05-07T04:16:42.096Z,100.00
2023-05-07T04:19:09.518Z,100.00
2023-05-07T04:21:36.982Z,100.00
2023-05-07T04:24:05.805Z,100.00
2023-05-07T04:26:33.545Z,100.00
2023-05-07T04:29:01.185Z,100.00
2023-05-07T04:31:30.578Z,100.00
2023-05-07T04:33:57.721Z,100.00
2023-05-07T04:36:25.704Z,100.00
2023-05-07T04:38:53.328Z,100.00
2023-05-07T04:41:21.276Z,100.00
2023-05-07T04:43:49.745Z,100.00
2023-05-07T04:46:17.239Z,100.00
2023-05-07T04:48:46.177Z,100.00
2023-05-07T04:51:14.236Z,100.00
2023-05-07T04:53:41.500Z,100.00
2023-05-07T04:56:08.973Z,100.00
2023-05-07T04:58:36.044Z,100.00
2023-05-07T05:01:02.767Z,100.00
2023-05-07T05:03:30.200Z,100.00
2023-05-07T05:05:59.422Z,100.00
2023-05-07T05:08:27.391Z,100.00
2023-05-07T05:10:54.194Z,100.00
2023-05-07T05:13:22.068Z,100.00
2023-05-07T05:15:49.478Z,100.00
2023-05-07T05:18:16.942Z,100.00
2023-05-07T05:20:46.398Z,100.00
2023-05-07T05:23:15.581Z,100.00
2023-05-07T05:25:43.389Z,100.00
2023-05-07T05:28:10.812Z,100.00
2023-05-07T05:30:38.494Z,100.00
2023-05-07T05:33:05.778Z,100.00
2023-05-07T05:35:33.178Z,100.00
2023-05-07T05:38:00.698Z,100.00
2023-05-07T05:40:29.494Z,100.00
2023-05-07T05:42:56.956Z,100.00
2023-05-07T05:45:24.102Z,100.00
2023-05-07T05:47:52.067Z,100.00
2023-05-07T05:50:19.816Z,100.00
2023-05-07T05:52:47.190Z,100.00
2023-05-07T05:55:14.671Z,100.00
2023-05-07T05:57:43.102Z,100.00
2023-05-07T06:00:11.160Z,100.00
2023-05-07T06:02:39.299Z,100.00
2023-05-07T06:05:08.012Z,100.00
2023-05-07T06:07:35.652Z,100.00
2023-05-07T06:10:03.556Z,100.00
2023-05-07T06:12:31.323Z,100.00
2023-05-07T06:14:59.999Z,100.00
2023-05-07T06:17:27.240Z,100.00
2023-05-07T06:19:55.059Z,100.00
2023-05-07T06:22:22.490Z,100.00
2023-05-07T06:24:49.501Z,100.00
2023-05-07T06:27:16.985Z,100.00
2023-05-07T06:29:44.487Z,100.00
2023-05-07T06:32:15.194Z,100.00
2023-05-07T06:34:42.680Z,100.00
2023-05-07T06:37:10.331Z,100.00
2023-05-07T06:39:37.597Z,100.00
2023-05-07T06:42:04.754Z,100.00
2023-05-07T06:44:32.434Z,100.00
2023-05-07T06:46:59.801Z,100.00
2023-05-07T06:49:28.550Z,100.00
2023-05-07T06:51:56.436Z,100.00
2023-05-07T06:54:24.534Z,100.00
2023-05-07T06:56:51.748Z,100.00
2023-05-07T06:59:19.720Z,100.00
2023-05-07T07:01:46.547Z,100.00
2023-05-07T07:04:14.175Z,100.00
2023-05-07T07:06:43.118Z,100.00
2023-05-07T07:09:10.361Z,100.00
2023-05-07T07:11:38.064Z,100.00
2023-05-07T07:14:06.894Z,100.00
2023-05-07T07:16:34.325Z,100.00
2023-05-07T07:19:01.826Z,100.00
2023-05-07T07:21:29.382Z,100.00
2023-05-07T07:23:59.098Z,100.00
2023-05-07T07:26:26.483Z,100.00
2023-05-07T07:28:53.767Z,100.00
2023-05-07T07:31:21.302Z,100.00
2023-05-07T07:33:49.367Z,99.45
2023-05-07T07:36:17.762Z,98.64
2023-05-07T07:38:45.183Z,98.39
2023-05-07T07:41:13.960Z,96.85
2023-05-07T07:43:41.588Z,96.59
2023-05-07T07:46:09.544Z,95.61
2023-05-07T07:48:38.204Z,98.26
2023-05-07T07:51:06.129Z,97.42
2023-05-07T07:53:32.916Z,87.68
2023-05-07T07:55:59.912Z,85.67
2023-05-07T07:58:28.640Z,84.24
2023-05-07T08:00:56.375Z,87.22
2023-05-07T08:03:24.272Z,83.83
2023-05-07T08:05:51.265Z,81.97
2023-05-07T08:08:18.801Z,82.35
2023-05-07T08:10:46.647Z,79.43
2023-05-07T08:13:15.804Z,80.61
2023-05-07T08:15:44.934Z,83.14
2023-05-07T08:18:12.243Z,83.04
2023-05-07T08:20:39.661Z,82.28
2023-05-07T08:23:07.386Z,84.51
2023-05-07T08:25:35.143Z,85.47
2023-05-07T08:28:02.687Z,86.25
2023-05-07T08:30:30.165Z,88.37
2023-05-07T08:33:00.542Z,86.07
2023-05-07T08:35:28.889Z,86.95
2023-05-07T08:37:56.265Z,88.39
2023-05-07T08:40:27.076Z,88.32
2023-05-07T08:42:55.007Z,88.08
2023-05-07T08:45:23.267Z,88.04
2023-05-07T08:47:56.519Z,87.27
2023-05-07T08:50:26.525Z,88.11
2023-05-07T08:52:54.121Z,88.04
2023-05-07T08:55:22.189Z,86.56
2023-05-07T08:57:49.598Z,86.84
2023-05-07T09:00:17.073Z,88.15
2023-05-07T09:02:50.338Z,88.71
2023-05-07T09:05:17.842Z,87.62
2023-05-07T09:07:46.666Z,88.16
2023-05-07T09:10:14.778Z,86.63
2023-05-07T09:12:42.421Z,88.64
2023-05-07T09:15:11.012Z,88.14
2023-05-07T09:17:38.746Z,82.60
2023-05-07T09:20:10.820Z,79.66
2023-05-07T09:22:39.646Z,79.14
2023-05-07T09:25:10.037Z,77.22
2023-05-07T09:27:37.182Z,79.50
2023-05-07T09:30:08.201Z,81.14
2023-05-07T09:32:36.525Z,81.04
2023-05-07T09:35:03.579Z,81.06
2023-05-07T09:37:33.831Z,82.59
2023-05-07T09:40:00.936Z,83.87
2023-05-07T09:42:30.231Z,84.45
2023-05-07T09:44:57.596Z,85.75
2023-05-07T09:47:26.089Z,86.74
2023-05-07T09:49:58.798Z,85.64
2023-05-07T09:52:27.992Z,85.31
2023-05-07T09:54:55.942Z,81.59
2023-05-07T09:57:25.324Z,82.14
2023-05-07T09:59:56.929Z,83.88
2023-05-07T10:02:27.178Z,86.83
2023-05-07T10:04:56.278Z,85.79
2023-05-07T10:07:25.256Z,86.36
2023-05-07T10:09:54.722Z,87.16
2023-05-07T10:12:22.752Z,85.19
2023-05-07T10:14:51.742Z,85.37
2023-05-07T10:17:21.451Z,84.27
2023-05-07T10:19:50.478Z,84.41
2023-05-07T10:22:19.225Z,84.71
2023-05-07T10:24:50.284Z,81.49
2023-05-07T10:27:19.146Z,81.60
2023-05-07T10:29:59.802Z,80.73
2023-05-07T10:32:40.262Z,78.71
2023-05-07T10:35:15.076Z,77.11
2023-05-07T10:37:43.427Z,77.92
2023-05-07T10:40:13.282Z,73.52
2023-05-07T10:42:54.082Z,73.84
2023-05-07T10:45:21.724Z,73.12
2023-05-07T10:48:28.684Z,73.81
2023-05-07T10:51:21.324Z,69.21
2023-05-07T10:53:49.165Z,70.07
2023-05-07T10:56:27.164Z,69.68
2023-05-07T10:58:55.398Z,72.85
2023-05-07T11:01:52.475Z,73.73
2023-05-07T11:04:21.612Z,75.08
2023-05-07T11:07:36.617Z,76.53
2023-05-07T11:10:05.793Z,76.87
2023-05-07T11:12:54.724Z,77.86
2023-05-07T11:15:48.503Z,78.53
2023-05-07T11:18:16.914Z,76.52
2023-05-07T11:20:59.693Z,81.17
2023-05-07T11:24:09.168Z,76.44
2023-05-07T11:26:48.824Z,67.84
2023-05-07T11:29:19.448Z,67.47
2023-05-07T11:31:50.742Z,61.38
2023-05-07T11:34:23.345Z,60.61
2023-05-07T11:36:53.043Z,60.02
2023-05-07T11:39:28.135Z,58.95
2023-05-07T11:41:56.092Z,56.51
2023-05-07T11:44:24.044Z,56.02
2023-05-07T11:46:51.741Z,55.48
2023-05-07T11:49:19.625Z,54.37
2023-05-07T11:51:46.569Z,50.56
2023-05-07T11:54:17.732Z,53.04
2023-05-07T11:56:45.865Z,57.30
2023-05-07T11:59:13.575Z,54.46
2023-05-07T12:01:41.094Z,53.16
2023-05-07T12:04:08.695Z,54.26
2023-05-07T12:06:38.617Z,54.83
2023-05-07T12:09:06.509Z,54.49
2023-05-07T12:11:36.053Z,57.40
2023-05-07T12:14:04.160Z,56.99
2023-05-07T12:16:34.299Z,59.99
2023-05-07T12:19:01.966Z,60.87
2023-05-07T12:21:30.516Z,60.51
2023-05-07T12:23:58.017Z,63.95
2023-05-07T12:26:25.619Z,61.90
2023-05-07T12:28:54.377Z,63.12
2023-05-07T12:31:21.994Z,65.14
2023-05-07T12:33:49.849Z,61.67
2023-05-07T12:36:17.395Z,64.92
2023-05-07T12:38:45.025Z,60.79
2023-05-07T12:41:12.985Z,59.13
2023-05-07T12:43:39.941Z,56.65
2023-05-07T12:46:09.304Z,57.92
2023-05-07T12:48:40.496Z,58.37
2023-05-07T12:51:15.153Z,60.90
2023-05-07T12:53:43.532Z,60.30
2023-05-07T12:56:11.128Z,57.59
2023-05-07T12:58:39.027Z,59.77
2023-05-07T13:01:09.349Z,60.67
2023-05-07T13:03:39.421Z,58.14
2023-05-07T13:06:08.482Z,57.46
2023-05-07T13:08:37.439Z,58.72
2023-05-07T13:11:05.754Z,57.76
2023-05-07T13:13:34.201Z,61.42
2023-05-07T13:16:01.523Z,60.76
2023-05-07T13:18:32.092Z,57.30
2023-05-07T13:21:00.649Z,56.48
2023-05-07T13:23:28.533Z,58.77
2023-05-07T13:25:55.865Z,57.14
2023-05-07T13:28:24.084Z,57.39
2023-05-07T13:30:55.737Z,56.09
2023-05-07T13:33:24.761Z,56.23
2023-05-07T13:35:53.888Z,55.85
2023-05-07T13:38:23.031Z,59.13
2023-05-07T13:40:50.520Z,57.98
2023-05-07T13:43:18.002Z,58.08
2023-05-07T13:45:46.428Z,59.80
2023-05-07T13:48:14.246Z,58.94
2023-05-07T13:50:42.782Z,58.47
2023-05-07T13:53:11.549Z,57.44
2023-05-07T13:55:38.826Z,59.41
2023-05-07T13:58:07.689Z,59.97
2023-05-07T14:00:35.190Z,59.10
2023-05-07T14:03:02.743Z,57.96
2023-05-07T14:05:30.415Z,58.08
2023-05-07T14:07:59.603Z,58.39
2023-05-07T14:10:28.805Z,55.89
2023-05-07T14:12:56.601Z,57.03
2023-05-07T14:15:23.892Z,57.76
2023-05-07T14:17:52.228Z,57.55
2023-05-07T14:20:19.796Z,55.93
2023-05-07T14:22:47.522Z,57.60
2023-05-07T14:25:14.785Z,57.53
2023-05-07T14:27:43.997Z,57.84
2023-05-07T14:30:12.021Z,58.09
2023-05-07T14:32:39.580Z,58.86
2023-05-07T14:35:07.264Z,61.99
2023-05-07T14:37:35.395Z,60.21
2023-05-07T14:40:03.130Z,59.04
2023-05-07T14:42:30.452Z,58.80
2023-05-07T14:44:59.081Z,58.38
2023-05-07T14:47:27.088Z,59.40
2023-05-07T14:49:55.134Z,60.43
2023-05-07T14:52:23.501Z,53.04
2023-05-07T14:54:51.226Z,56.13
2023-05-07T14:57:18.681Z,56.99
2023-05-07T14:59:45.682Z,57.69
2023-05-07T15:02:14.999Z,57.33
2023-05-07T15:04:42.369Z,59.66
2023-05-07T15:07:09.837Z,61.03
2023-05-07T15:09:37.403Z,59.41
2023-05-07T15:12:04.900Z,58.90
2023-05-07T15:14:32.009Z,57.50
2023-05-07T15:16:59.342Z,59.33
2023-05-07T15:19:28.623Z,59.84
2023-05-07T15:21:55.852Z,58.47
2023-05-07T15:24:23.891Z,60.82
2023-05-07T15:26:53.784Z,59.40
2023-05-07T15:29:21.011Z,58.87
2023-05-07T15:31:52.067Z,57.68
2023-05-07T15:34:20.315Z,58.24
2023-05-07T15:36:49.475Z,60.88
2023-05-07T15:39:17.719Z,59.40
2023-05-07T15:41:44.949Z,59.91
2023-05-07T15:44:12.344Z,60.05
2023-05-07T15:46:39.903Z,58.64
2023-05-07T15:49:07.198Z,59.90
2023-05-07T15:51:36.614Z,60.63
2023-05-07T15:54:06.166Z,63.27
2023-05-07T15:56:34.151Z,60.33
2023-05-07T15:59:01.438Z,60.09
2023-05-07T16:01:29.463Z,60.53
2023-05-07T16:03:58.221Z,59.28
2023-05-07T16:06:25.625Z,58.75
2023-05-07T16:08:52.839Z,59.75
2023-05-07T16:11:22.633Z,60.05
2023-05-07T16:13:50.487Z,57.65
2023-05-07T16:16:17.939Z,60.04
2023-05-07T16:18:46.651Z,57.48
2023-05-07T16:21:14.541Z,57.03
2023-05-07T16:23:42.273Z,59.39
2023-05-07T16:26:09.619Z,58.72
2023-05-07T16:28:39.021Z,57.35
2023-05-07T16:31:08.308Z,59.82
2023-05-07T16:33:35.853Z,57.44
2023-05-07T16:36:03.654Z,57.36
2023-05-07T16:38:31.103Z,58.28
2023-05-07T16:40:58.542Z,57.99
2023-05-07T16:43:26.939Z,57.44
2023-05-07T16:45:55.655Z,57.97
2023-05-07T16:48:22.943Z,57.97
2023-05-07T16:50:50.046Z,57.56
2023-05-07T16:53:20.949Z,57.52
2023-05-07T16:55:48.510Z,56.72
2023-05-07T16:58:16.558Z,56.63
2023-05-07T17:03:18.075Z,57.27
2023-05-07T17:05:45.631Z,57.75
2023-05-07T17:08:13.156Z,58.37
2023-05-07T17:10:41.108Z,57.78
2023-05-07T17:13:08.562Z,57.74
2023-05-07T17:15:35.422Z,57.18
2023-05-07T17:18:03.246Z,55.83
2023-05-07T17:20:32.725Z,56.20
2023-05-07T17:23:00.327Z,55.27
2023-05-07T17:25:27.706Z,55.11
2023-05-07T17:27:55.189Z,53.42
2023-05-07T17:30:23.287Z,53.61
2023-05-07T17:32:50.996Z,57.73
2023-05-07T17:35:18.769Z,62.71
2023-05-07T17:37:47.732Z,62.91
2023-05-07T17:40:15.688Z,61.27
2023-05-07T17:42:43.074Z,61.63
2023-05-07T17:45:10.702Z,61.88
2023-05-07T17:47:38.190Z,62.24
2023-05-07T17:50:06.755Z,63.15
2023-05-07T17:52:34.417Z,64.29
2023-05-07T17:55:04.367Z,64.98
2023-05-07T17:57:31.660Z,65.24
2023-05-07T17:59:59.395Z,64.14
2023-05-07T18:02:27.834Z,67.05
2023-05-07T18:04:55.532Z,67.39
2023-05-07T18:07:23.280Z,69.11
2023-05-07T18:09:50.871Z,68.69
2023-05-07T18:12:19.755Z,69.42
2023-05-07T18:14:47.133Z,67.93
2023-05-07T18:17:15.421Z,68.04
2023-05-07T18:19:44.366Z,70.05
2023-05-07T18:22:11.653Z,69.31
2023-05-07T18:24:39.226Z,69.82
2023-05-07T18:27:07.076Z,70.75
2023-05-07T18:29:36.910Z,72.19
2023-05-07T18:32:04.646Z,73.73
2023-05-07T18:34:32.214Z,74.31
2023-05-07T18:36:59.667Z,74.14
2023-05-07T18:39:28.916Z,73.51
2023-05-07T18:41:56.514Z,73.66
2023-05-07T18:44:24.161Z,74.25
2023-05-07T18:46:53.755Z,73.18
2023-05-07T18:49:21.460Z,74.35
2023-05-07T18:51:49.430Z,73.91
2023-05-07T18:54:16.985Z,74.52
2023-05-07T18:56:44.337Z,75.09
2023-05-07T18:59:11.905Z,74.84
2023-05-07T19:01:39.536Z,74.62
2023-05-07T19:04:08.844Z,74.31
2023-05-07T19:06:36.511Z,75.52
2023-05-07T19:09:04.391Z,74.74
2023-05-07T19:11:32.124Z,74.15
2023-05-07T19:14:01.741Z,73.58
2023-05-07T19:16:31.524Z,73.97
2023-05-07T19:18:59.921Z,73.10
2023-05-07T19:21:29.528Z,73.36
2023-05-07T19:23:57.048Z,73.96
2023-05-07T19:26:24.851Z,73.17
2023-05-07T19:29:06.605Z,73.38
2023-05-07T19:31:39.165Z,74.92
2023-05-07T19:34:06.961Z,75.32
2023-05-07T19:36:36.140Z,75.67
2023-05-07T19:39:03.026Z,75.26
2023-05-07T19:41:30.698Z,76.50
2023-05-07T19:44:01.565Z,75.39
2023-05-07T19:46:28.605Z,76.98
2023-05-07T19:48:55.916Z,76.46
2023-05-07T19:51:23.385Z,76.98
2023-05-07T19:53:52.364Z,77.92
2023-05-07T19:56:19.367Z,78.76
2023-05-07T19:58:46.357Z,79.44
2023-05-07T20:01:13.878Z,79.66
2023-05-07T20:03:43.557Z,80.51
2023-05-07T20:06:11.238Z,81.20
2023-05-07T20:08:38.815Z,80.34
2023-05-07T20:11:08.788Z,80.99
2023-05-07T20:13:35.857Z,82.32
2023-05-07T20:16:03.998Z,82.42
2023-05-07T20:18:31.966Z,82.55
2023-05-07T20:20:59.516Z,82.79
2023-05-07T20:23:27.768Z,83.17
2023-05-07T20:25:55.382Z,83.39
2023-05-07T20:28:24.927Z,84.24
2023-05-07T20:30:52.816Z,85.42
2023-05-07T20:33:20.520Z,85.47
2023-05-07T20:35:47.714Z,85.36
2023-05-07T20:38:15.202Z,86.19
2023-05-07T20:40:42.227Z,86.21
2023-05-07T20:43:09.285Z,85.96
2023-05-07T20:45:37.984Z,86.96
2023-05-07T20:48:05.682Z,87.10
2023-05-07T20:50:33.405Z,86.90
2023-05-07T20:53:00.258Z,87.01
2023-05-07T20:55:27.455Z,87.53
2023-05-07T20:57:54.230Z,89.04
2023-05-07T21:00:21.188Z,89.47
2023-05-07T21:02:49.377Z,89.19
2023-05-07T21:05:16.355Z,89.63
2023-05-07T21:07:43.494Z,89.40
2023-05-07T21:10:11.023Z,89.45
2023-05-07T21:12:38.151Z,89.56
2023-05-07T21:15:06.096Z,89.98
2023-05-07T21:17:33.239Z,90.90
2023-05-07T21:20:02.325Z,92.15
2023-05-07T21:22:29.404Z,92.48
2023-05-07T21:24:56.605Z,92.87
2023-05-07T21:27:24.707Z,94.51
2023-05-07T21:29:51.640Z,95.70
2023-05-07T21:32:18.470Z,96.72
2023-05-07T21:34:45.371Z,97.90
2023-05-07T21:37:14.178Z,97.88
2023-05-07T21:39:40.883Z,98.59
2023-05-07T21:42:07.693Z,98.87
2023-05-07T21:44:34.898Z,98.95
2023-05-07T21:47:01.767Z,99.24
2023-05-07T21:49:28.946Z,98.72
2023-05-07T21:51:56.027Z,98.62
2023-05-07T21:54:24.723Z,98.65
2023-05-07T21:56:51.697Z,98.50
2023-05-07T21:59:18.414Z,99.22
2023-05-07T22:01:45.459Z,99.22
2023-05-07T22:04:12.442Z,99.62
2023-05-07T22:06:39.565Z,98.76
2023-05-07T22:09:06.366Z,98.45
2023-05-07T22:11:34.544Z,99.72
2023-05-07T22:14:01.352Z,100.00
2023-05-07T22:16:28.561Z,100.00
2023-05-07T22:18:55.436Z,100.00
2023-05-07T22:21:22.469Z,100.00
2023-05-07T22:23:49.319Z,99.89
2023-05-07T22:26:16.533Z,99.87
2023-05-07T22:28:45.156Z,99.72
2023-05-07T22:31:12.260Z,99.27
2023-05-07T22:33:39.529Z,98.59
2023-05-07T22:36:07.110Z,98.38
2023-05-07T22:38:34.332Z,97.55
2023-05-07T22:41:01.214Z,96.63
2023-05-07T22:43:28.024Z,95.97
2023-05-07T22:46:00.389Z,95.22
2023-05-07T22:48:27.527Z,94.59
2023-05-07T22:50:54.676Z,93.89
2023-05-07T22:53:21.578Z,93.92
2023-05-07T22:55:49.383Z,93.71
2023-05-07T22:58:17.020Z,92.83
2023-05-07T23:00:44.499Z,92.72
2023-05-07T23:03:13.861Z,92.34
2023-05-07T23:05:42.507Z,92.50
2023-05-07T23:08:09.699Z,91.90
2023-05-07T23:10:37.083Z,91.89
2023-05-07T23:13:05.238Z,91.81
2023-05-07T23:15:32.151Z,92.02
2023-05-07T23:17:59.567Z,92.10
2023-05-07T23:20:33.114Z,91.94
2023-05-07T23:23:00.866Z,91.65
2023-05-07T23:25:28.331Z,91.76
2023-05-07T23:27:55.690Z,91.46
2023-05-07T23:30:23.793Z,91.29
2023-05-07T23:32:51.289Z,90.51
2023-05-07T23:35:19.231Z,90.18
2023-05-07T23:37:48.249Z,89.82
2023-05-07T23:40:17.233Z,89.71
2023-05-07T23:42:44.547Z,89.85
2023-05-07T23:45:12.179Z,89.72
2023-05-07T23:47:39.523Z,90.21
2023-05-07T23:50:07.624Z,89.87
2023-05-07T23:52:35.604Z,89.74
2023-05-07T23:55:04.655Z,89.23
2023-05-07T23:57:31.991Z,89.44
2023-05-07T23:59:59.596Z,88.87
